North Pole, AK (99705)

12:20 PM AKDT on September 02, 2015 (GMT -0800)
Brookside Subdivision Jim-Tom | | Change Station
CLOSE
Current Station
Personal Weather Station
Location: North Pole, AK
Elevation: 482 ft
Nearby Weather Stations

Elev 482 ft 64.76 °N, 147.33 °W | Updated 6 seconds ago

Clear
Clear
51.8 °F
Feels Like 51.8 °F
N
3.4
Wind Variable Wind from NNE
Gusts 3.4 mph

Today
High -- | Low -- °F
--% Chance of Precip.
Yesterday
High -- | Low -- °F
Precip. -- in
6:32 AM 9:03 PM
Waning Gibbous, 77% visible
Pressure 30.12 in
Visibility 10.0 miles
Clouds Clear
Dew Point 36 °F
Humidity 56%
Rainfall 0.00 in
Snow Depth Not available.
UV 3 out of 12
Pollen Not available.
Air Quality Not available.
Flu Activity Not available.
METAR PAFB 021958Z AUTO 07006KT 10SM CLR 11/01 A3010 RMK AO2 SLP198 T01080008 $
Pressure 30.12 in
Visibility 10.0 miles
Clouds Clear
Dew Point 36 °F
Humidity 56%
Rainfall 0.00 in
Snow Depth Not available.
UV 3 out of 12
Pollen Not available.
Air Quality Not available.
Flu Activity Not available.
METAR PAFB 021958Z AUTO 07006KT 10SM CLR 11/01 A3010 RMK AO2 SLP198 T01080008 $

10-Day Weather Forecast

×

Almanac

Astronomy

Sep. 02, 2015 Rise Set
Actual Time
Civil Twilight
Nautical Twilight
Astronomical Twilight
Moon
Length of Visible Light
Length of Day
Tomorrow will be .
, % of the Moon is Illuminated

Today's Extremes

State Highs State Lows

Community

WunderPhotos

Upload Photos

1,851,804 photos uploaded!

WunderBlogs® & News

Nearby

Air Quality

  Air Quality AQ Index Pollutant
Not available.

Snow Depth

Station Depth Elevation

Earthquake Activity

City Distance Mag. Time & Date
Minimum magnitude displayed is 2.5.

Coastal Water Temperatures

Place Temperature

Stations

Nearby Weather Stations

Station Location Temp. Windchill Dew Point Humidity Wind Precip. Elev Updated Type